General Mitchell International Airport
KMKE : now visible

Airfield :











YOU CAN JOIN US ON...

 
LOGIN :

Register | Disclaimer

   EN    FR    IT 

 









Legend :    VFR   Marginal VFR   IFR   Intensive IFR   Very Intensive IFR
Visi :
Ceiling :
>= 8 km
>= 3000ft
5 to 8 km
1000 to 3000 ft
1500m to 5 km
500 to 1000 ft
800 to 1500m
200 to 500 ft
< 800m
< 200 ft
Symbols :   Thunderstorms  Fog  Heavy snow  Heavy precipitations  Wind > 20 kt






- Airport Elevation : 723 ft
- IATA code : MKE


KMKE - General Mitchell International

CURRENT METAR :
  • 250352Z 16003KT 3SM TSRA BR BKN034CB BKN120 17/16 A2969 RMK AO2 LTG DSNT N AND NE RAB26 TSB20 SLP052 OCNL LTGICCC NE-S TS NE-S MOV NE P0002 T01670156

EXPIRED METARs :
  • 250320Z 20004KT 9SM TS FEW100CB SCT120 16/14 A2968 RMK AO2 LTG DSNT SW-N TSB20 OCNL LTGICCC SW-N TS SW-N MOV NE T01560144
  • 250252Z 15008KT 10SM BKN100 OVC140 16/14 A2968 RMK AO2 LTG DSNT W-N SLP048 60026 T01560144 56012
  • 250152Z 12005KT 10SM FEW026 BKN090 BKN110 OVC140 17/15 A2968 RMK AO2 RAE24 SLP050 P0005 T01670150
  • 250129Z 11005KT 10SM SCT026 BKN046 OVC100 17/15 A2968 RMK AO2 RAE24 P0005 T01670150
  • 250052Z 35003KT 6SM RA BKN024 BKN041 OVC100 17/16 A2970 RMK AO2 LTG DSNT NE-S TSE30 SLP056 P0021 T01720156
  • 250031Z 36006KT 8SM -RA FEW029 BKN070 OVC100 17/15 A2970 RMK AO2 LTG DSNT ALQDS TSE30 P0017 T01670150
  • 242352Z 30007KT 9SM -TSRA SCT049CB BKN080 OVC110 20/13 A2972 RMK AO2 LTG DSNT S-NW RAB06E18B50 TSB50 SLP060 OCNL LTGCG SW-NW TS SW-NW MOV E P0000 60000 T02000128 10206 20167 53006
  • 242252Z 21003KT 10SM FEW043 SCT120 BKN150 OVC250 20/12 A2969 RMK AO2 SLP054 T02000117

TAF KMKE
Valid from the 25 at 02:00 until the 26 at 06:00 UTC


250209Z 2502/2606 12009KT P6SM FEW026 OVC090
FM250400 30008KT 3SM TSRA BR OVC025CB
FM250600 24008KT P6SM BKN035
FM250900 29009KT P6SM FEW250
FM251700 34006KT P6SM FEW250
FM252100 15008KT P6SM FEW250
KZAU FIR / North America



MET'MAP, your aeronautical weather chart ! - Copyright ORBIFLY December 2007 - Disclaimer

ORBIFLY MET'MAP TEAM :

Programming & Development : Alexandra Zaïnal
Original concept : Baudouin d'Aumeries
Technical & hardware support : Manuel Goepfert
Assistance : Marc-Olivier Méhu




SOURCES & CREDITS :

   NOAA       Earth
Advisory